createdAt,value
2022-08-09T00:00:21.050Z,57.60
2022-08-09T00:02:49.929Z,57.86
2022-08-09T00:06:18.384Z,59.07
2022-08-09T00:08:09.947Z,58.38
2022-08-09T00:10:38.407Z,58.87
2022-08-09T00:13:16.843Z,58.86
2022-08-09T00:15:59.111Z,58.77
2022-08-09T00:18:29.730Z,57.95
2022-08-09T00:20:57.941Z,58.08
2022-08-09T00:23:57.138Z,57.86
2022-08-09T00:26:12.248Z,58.03
2022-08-09T00:28:40.353Z,58.39
2022-08-09T00:31:46.737Z,59.16
2022-08-09T00:33:55.779Z,59.98
2022-08-09T00:36:27.265Z,59.96
2022-08-09T00:38:56.851Z,58.80
2022-08-09T00:44:11.268Z,58.11
2022-08-09T00:44:20.358Z,57.83
2022-08-09T00:46:57.387Z,58.17
2022-08-09T00:49:30.306Z,58.30
2022-08-09T00:52:05.283Z,58.42
2022-08-09T00:54:36.184Z,58.03
2022-08-09T00:57:10.334Z,57.81
2022-08-09T00:59:40.462Z,58.49
2022-08-09T01:02:07.837Z,59.01
2022-08-09T01:04:41.928Z,59.00
2022-08-09T01:07:20.162Z,58.52
2022-08-09T01:10:51.219Z,100.00
2022-08-09T01:13:53.286Z,58.03
2022-08-09T01:16:27.525Z,58.12
2022-08-09T01:19:04.700Z,59.04
2022-08-09T01:22:12.370Z,59.70
2022-08-09T01:25:12.330Z,61.02
2022-08-09T01:27:41.798Z,60.97
2022-08-09T01:30:35.428Z,60.74
2022-08-09T01:32:59.133Z,61.08
2022-08-09T01:35:42.203Z,60.46
2022-08-09T01:38:17.587Z,60.86
2022-08-09T01:40:52.838Z,60.14
2022-08-09T01:43:51.137Z,59.55
2022-08-09T01:46:26.849Z,58.99
2022-08-09T01:48:59.753Z,59.17
2022-08-09T01:51:32.349Z,59.63
2022-08-09T01:54:02.814Z,59.50
2022-08-09T01:56:33.302Z,59.89
2022-08-09T01:59:03.974Z,59.63
2022-08-09T02:01:58.317Z,58.96
2022-08-09T02:04:22.585Z,58.79
2022-08-09T02:07:15.374Z,59.11
2022-08-09T02:09:59.504Z,58.82
2022-08-09T02:12:29.133Z,59.16
2022-08-09T02:15:00.930Z,60.58
2022-08-09T02:18:09.741Z,60.24
2022-08-09T02:20:26.465Z,61.01
2022-08-09T02:23:17.039Z,60.22
2022-08-09T02:25:52.613Z,59.87
2022-08-09T02:28:33.180Z,62.29
2022-08-09T02:31:08.852Z,61.09
2022-08-09T02:34:07.598Z,60.14
2022-08-09T02:36:37.439Z,60.72
2022-08-09T02:39:19.955Z,60.68
2022-08-09T02:42:07.805Z,61.20
2022-08-09T02:44:41.849Z,61.27
2022-08-09T02:47:13.895Z,61.24
2022-08-09T02:50:01.098Z,61.11
2022-08-09T02:52:36.557Z,60.97
2022-08-09T02:55:20.300Z,60.69
2022-08-09T02:58:00.751Z,61.45
2022-08-09T03:00:47.753Z,61.68
2022-08-09T03:03:37.196Z,61.67
2022-08-09T03:06:15.040Z,62.32
2022-08-09T03:08:46.279Z,63.50
2022-08-09T03:11:30.236Z,62.88
2022-08-09T03:14:06.881Z,62.63
2022-08-09T03:16:37.354Z,63.01
2022-08-09T03:19:14.614Z,62.60
2022-08-09T03:21:58.005Z,62.89
2022-08-09T03:24:42.817Z,65.06
2022-08-09T03:27:13.889Z,62.86
2022-08-09T03:29:57.876Z,62.66
2022-08-09T03:32:30.817Z,63.00
2022-08-09T03:34:58.969Z,64.14
2022-08-09T03:37:56.663Z,65.62
2022-08-09T03:40:13.440Z,63.23
2022-08-09T03:42:43.176Z,63.14
2022-08-09T03:45:10.883Z,63.23
2022-08-09T03:47:41.845Z,62.99
2022-08-09T03:50:10.900Z,62.71
2022-08-09T03:52:41.729Z,62.46
2022-08-09T03:55:10.699Z,62.67
2022-08-09T03:57:53.386Z,63.08
2022-08-09T04:00:29.630Z,64.26
2022-08-09T04:02:57.845Z,65.90
2022-08-09T04:05:28.267Z,65.56
2022-08-09T04:07:57.572Z,64.72
2022-08-09T04:10:29.519Z,66.25
2022-08-09T04:13:01.149Z,66.30
2022-08-09T04:15:52.011Z,67.61
2022-08-09T04:18:17.853Z,67.15
2022-08-09T04:20:49.912Z,66.29
2022-08-09T04:23:18.024Z,67.23
2022-08-09T04:25:53.350Z,66.17
2022-08-09T04:28:34.218Z,66.15
2022-08-09T04:31:07.911Z,66.25
2022-08-09T04:33:52.430Z,65.98
2022-08-09T04:36:25.492Z,66.49
2022-08-09T04:38:53.093Z,66.10
2022-08-09T04:41:23.548Z,66.07
2022-08-09T04:44:05.011Z,68.23
2022-08-09T04:46:57.673Z,68.08
2022-08-09T04:49:30.241Z,68.98
2022-08-09T04:52:06.093Z,67.97
2022-08-09T04:54:34.391Z,66.90
2022-08-09T04:57:00.936Z,65.50
2022-08-09T04:59:30.710Z,66.73
2022-08-09T05:01:57.338Z,65.99
2022-08-09T05:04:23.953Z,64.54
2022-08-09T05:06:58.302Z,64.08
2022-08-09T05:09:25.014Z,64.15
2022-08-09T05:12:11.100Z,64.59
2022-08-09T05:14:39.099Z,64.07
2022-08-09T05:18:36.787Z,63.91
2022-08-09T05:19:57.112Z,63.70
2022-08-09T05:22:34.944Z,64.21
2022-08-09T05:25:11.729Z,64.59
2022-08-09T05:27:45.616Z,63.58
2022-08-09T05:30:15.327Z,62.44
2022-08-09T05:32:45.306Z,62.50
2022-08-09T05:35:17.819Z,61.52
2022-08-09T05:37:50.010Z,62.00
2022-08-09T05:40:17.311Z,62.14
2022-08-09T05:42:45.202Z,61.59
2022-08-09T05:45:14.284Z,61.94
2022-08-09T05:47:52.147Z,63.02
2022-08-09T05:50:32.451Z,62.28
2022-08-09T05:53:06.569Z,62.84
2022-08-09T05:55:48.177Z,62.42
2022-08-09T05:58:19.767Z,61.21
2022-08-09T06:00:46.336Z,62.32
2022-08-09T06:03:13.084Z,61.93
2022-08-09T06:05:54.537Z,61.24
2022-08-09T06:08:29.378Z,60.42
2022-08-09T06:10:58.401Z,61.56
2022-08-09T06:13:28.655Z,60.11
2022-08-09T06:16:01.599Z,60.02
2022-08-09T06:18:32.469Z,59.78
2022-08-09T06:21:00.428Z,59.43
2022-08-09T06:23:57.387Z,59.96
2022-08-09T06:26:20.406Z,60.51
2022-08-09T06:29:00.591Z,59.25
2022-08-09T06:31:40.632Z,60.21
2022-08-09T06:34:17.680Z,58.96
2022-08-09T06:36:44.826Z,59.33
2022-08-09T06:39:12.640Z,100.00
2022-08-09T06:42:08.225Z,100.00
2022-08-09T06:44:26.784Z,100.00
2022-08-09T06:46:55.439Z,56.88
2022-08-09T06:49:44.820Z,57.92
2022-08-09T06:52:10.314Z,57.47
2022-08-09T06:54:38.560Z,57.70
2022-08-09T06:57:05.678Z,57.07
2022-08-09T07:00:50.100Z,57.14
2022-08-09T07:02:21.638Z,56.82
2022-08-09T07:04:48.224Z,56.76
2022-08-09T07:07:59.136Z,57.03
2022-08-09T07:10:17.934Z,56.11
2022-08-09T07:12:57.729Z,56.66
2022-08-09T07:16:36.070Z,57.36
2022-08-09T07:18:11.765Z,100.00
2022-08-09T07:20:43.356Z,100.00
2022-08-09T07:23:19.170Z,56.61
2022-08-09T07:25:52.485Z,56.17
2022-08-09T07:28:29.152Z,56.78
2022-08-09T07:30:56.015Z,57.96
2022-08-09T07:33:23.156Z,56.27
2022-08-09T07:35:53.915Z,56.05
2022-08-09T07:38:21.715Z,57.38
2022-08-09T07:41:10.034Z,56.48
2022-08-09T07:43:41.032Z,56.14
2022-08-09T07:46:19.129Z,55.54
2022-08-09T07:48:46.243Z,56.81
2022-08-09T07:52:05.119Z,55.59
2022-08-09T07:54:12.182Z,54.73
2022-08-09T07:56:48.815Z,55.23
2022-08-09T07:59:33.916Z,55.62
2022-08-09T08:02:04.948Z,55.08
2022-08-09T08:04:32.984Z,54.70
2022-08-09T08:07:15.347Z,55.36
2022-08-09T08:09:55.107Z,55.93
2022-08-09T08:12:35.608Z,55.55
2022-08-09T08:15:04.658Z,55.21
2022-08-09T08:17:53.211Z,55.21
2022-08-09T08:20:28.574Z,55.91
2022-08-09T08:22:58.737Z,56.22
2022-08-09T08:25:44.442Z,55.52
2022-08-09T08:28:15.156Z,56.18
2022-08-09T08:30:43.980Z,55.67
2022-08-09T08:33:11.949Z,55.84
2022-08-09T08:35:58.377Z,56.62
2022-08-09T08:38:25.518Z,56.58
2022-08-09T08:40:56.522Z,56.21
2022-08-09T08:43:24.296Z,56.20
2022-08-09T08:46:04.036Z,55.94
2022-08-09T08:48:51.954Z,56.69
2022-08-09T08:51:22.487Z,57.41
2022-08-09T08:54:03.084Z,58.04
2022-08-09T08:56:31.994Z,58.23
2022-08-09T08:58:59.282Z,57.03
2022-08-09T09:01:44.924Z,56.16
2022-08-09T09:04:14.131Z,56.20
2022-08-09T09:06:43.164Z,55.59
2022-08-09T09:09:21.052Z,55.88
2022-08-09T09:12:02.329Z,55.47
2022-08-09T09:14:31.199Z,55.63
2022-08-09T09:16:58.347Z,55.56
2022-08-09T09:19:41.645Z,53.13
2022-08-09T09:22:11.890Z,52.69
2022-08-09T09:24:50.464Z,52.00
2022-08-09T09:28:05.245Z,51.13
2022-08-09T09:30:27.470Z,52.03
2022-08-09T09:33:16.632Z,52.11
2022-08-09T09:36:02.708Z,52.09
2022-08-09T09:38:44.418Z,50.90
2022-08-09T09:41:49.582Z,52.11
2022-08-09T09:44:25.859Z,51.40
2022-08-09T09:47:05.414Z,52.26
2022-08-09T09:50:07.179Z,50.74
2022-08-09T09:52:36.927Z,50.82
2022-08-09T09:55:16.398Z,49.30
2022-08-09T09:58:17.159Z,49.59
2022-08-09T10:00:58.734Z,49.14
2022-08-09T10:03:38.170Z,47.78
2022-08-09T10:06:06.684Z,48.77
2022-08-09T10:08:43.226Z,46.82
2022-08-09T10:12:01.446Z,46.82
2022-08-09T10:14:30.811Z,46.69
2022-08-09T10:17:39.498Z,46.01
2022-08-09T10:19:58.706Z,46.74
2022-08-09T10:22:40.926Z,45.47
2022-08-09T10:25:12.538Z,43.29
2022-08-09T10:27:56.029Z,43.49
2022-08-09T10:34:04.278Z,45.03
2022-08-09T10:36:00.972Z,43.66
2022-08-09T10:38:43.258Z,42.36
2022-08-09T10:41:18.703Z,42.42
2022-08-09T10:44:01.068Z,42.66
2022-08-09T10:46:57.474Z,39.71
2022-08-09T10:49:50.346Z,40.00
2022-08-09T10:52:21.456Z,40.45
2022-08-09T10:54:49.982Z,40.86
2022-08-09T10:57:20.140Z,39.58
2022-08-09T10:59:57.685Z,39.42
2022-08-09T11:03:27.851Z,38.82
2022-08-09T11:05:29.655Z,40.18
2022-08-09T11:07:59.358Z,39.06
2022-08-09T11:10:54.425Z,38.45
2022-08-09T11:13:49.328Z,38.25
2022-08-09T11:16:38.087Z,39.72
2022-08-09T11:19:09.405Z,40.98
2022-08-09T11:21:55.197Z,100.00
2022-08-09T11:24:24.277Z,100.00
2022-08-09T11:26:54.768Z,100.00
2022-08-09T11:30:32.935Z,100.00
2022-08-09T11:33:18.245Z,100.00
2022-08-09T11:35:51.926Z,100.00
2022-08-09T11:38:34.819Z,100.00
2022-08-09T11:41:38.071Z,40.98
2022-08-09T11:44:07.522Z,38.73
2022-08-09T11:46:54.999Z,38.16
2022-08-09T11:50:55.951Z,37.34
2022-08-09T11:53:58.108Z,35.85
2022-08-09T11:55:53.361Z,36.44
2022-08-09T11:58:30.401Z,36.94
2022-08-09T12:01:08.725Z,38.65
2022-08-09T12:03:56.876Z,36.38
2022-08-09T12:06:32.796Z,37.13
2022-08-09T12:09:05.561Z,35.38
2022-08-09T12:11:35.820Z,35.54
2022-08-09T12:14:36.708Z,35.26
2022-08-09T12:17:23.339Z,34.88
2022-08-09T12:19:59.826Z,34.25
2022-08-09T12:22:27.887Z,34.73
2022-08-09T12:25:14.834Z,35.58
2022-08-09T12:29:10.986Z,35.08
2022-08-09T12:30:38.981Z,35.79
2022-08-09T12:33:06.253Z,34.67
2022-08-09T12:35:40.793Z,33.75
2022-08-09T12:38:38.219Z,35.85
2022-08-09T12:41:07.305Z,34.65
2022-08-09T12:44:04.936Z,34.33
2022-08-09T12:46:25.770Z,34.18
2022-08-09T12:48:54.292Z,33.16
2022-08-09T12:51:52.242Z,32.99
2022-08-09T12:54:08.649Z,34.29
2022-08-09T12:56:51.453Z,34.58
2022-08-09T12:59:24.186Z,35.45
2022-08-09T13:01:59.589Z,34.37
2022-08-09T13:04:38.165Z,34.93
2022-08-09T13:07:16.681Z,35.75
2022-08-09T13:09:55.962Z,35.16
2022-08-09T13:12:26.880Z,33.13
2022-08-09T13:15:04.634Z,35.39
2022-08-09T13:18:03.400Z,33.07
2022-08-09T13:20:37.421Z,35.23
2022-08-09T13:24:15.794Z,34.97
2022-08-09T13:26:10.134Z,35.38
2022-08-09T13:28:39.427Z,34.73
2022-08-09T13:32:15.903Z,35.01
2022-08-09T13:33:58.255Z,35.19
2022-08-09T13:36:41.306Z,33.66
2022-08-09T13:41:52.251Z,33.62
2022-08-09T13:42:12.610Z,34.45
2022-08-09T13:44:42.826Z,32.51
2022-08-09T13:47:33.456Z,32.55
2022-08-09T13:50:12.733Z,31.97
2022-08-09T13:52:53.368Z,31.77
2022-08-09T13:55:21.185Z,33.41
2022-08-09T13:57:56.026Z,34.69
2022-08-09T14:00:28.670Z,34.61
2022-08-09T14:03:57.776Z,35.16
2022-08-09T14:05:58.733Z,36.67
2022-08-09T14:08:28.500Z,37.71
2022-08-09T14:10:57.348Z,37.60
2022-08-09T14:13:28.063Z,37.63
2022-08-09T14:16:16.787Z,38.05
2022-08-09T14:18:49.240Z,38.70
2022-08-09T14:21:18.861Z,39.49
2022-08-09T14:23:54.543Z,40.06
2022-08-09T14:26:33.478Z,40.20
2022-08-09T14:30:15.049Z,40.27
2022-08-09T14:32:04.641Z,40.28
2022-08-09T14:34:37.615Z,40.53
2022-08-09T14:37:08.379Z,40.46
2022-08-09T14:39:45.111Z,40.20
2022-08-09T14:42:31.102Z,40.75
2022-08-09T14:46:38.915Z,40.27
2022-08-09T14:47:58.592Z,40.61
2022-08-09T14:50:28.030Z,39.69
2022-08-09T14:52:54.715Z,38.91
2022-08-09T14:55:21.406Z,38.41
2022-08-09T14:57:48.860Z,37.66
2022-08-09T15:00:16.434Z,37.66
2022-08-09T15:02:43.023Z,37.40
2022-08-09T15:05:16.178Z,36.69
2022-08-09T15:07:45.487Z,36.73
2022-08-09T15:10:21.812Z,35.67
2022-08-09T15:12:52.128Z,36.88
2022-08-09T15:15:18.909Z,36.87
2022-08-09T15:17:51.691Z,37.14
2022-08-09T15:21:56.278Z,37.36
2022-08-09T15:23:56.194Z,37.42
2022-08-09T15:25:55.596Z,37.85
2022-08-09T15:28:28.105Z,37.13
2022-08-09T15:31:09.843Z,36.72
2022-08-09T15:34:17.708Z,36.81
2022-08-09T15:36:30.262Z,36.35
2022-08-09T15:39:00.766Z,36.49
2022-08-09T15:41:32.225Z,36.60
2022-08-09T15:44:03.779Z,36.57
2022-08-09T15:46:34.763Z,36.88
2022-08-09T15:49:22.928Z,36.80
2022-08-09T15:52:04.806Z,37.43
2022-08-09T15:54:44.590Z,36.90
2022-08-09T15:57:13.803Z,37.18
2022-08-09T15:59:40.608Z,37.55
2022-08-09T16:02:08.916Z,37.38
2022-08-09T16:04:42.606Z,36.96
2022-08-09T16:07:09.850Z,37.94
2022-08-09T16:09:51.545Z,37.24
2022-08-09T16:12:26.359Z,37.44
2022-08-09T16:14:57.766Z,38.21
2022-08-09T16:17:28.828Z,38.38
2022-08-09T16:20:03.874Z,38.79
2022-08-09T16:22:32.602Z,38.59
2022-08-09T16:25:01.436Z,38.73
2022-08-09T16:27:29.937Z,38.31
2022-08-09T16:30:00.714Z,38.67
2022-08-09T16:32:53.235Z,38.94
2022-08-09T16:35:53.324Z,39.01
2022-08-09T16:38:09.855Z,39.12
2022-08-09T16:40:40.686Z,39.40
2022-08-09T16:43:09.387Z,39.29
2022-08-09T16:45:41.628Z,39.90
2022-08-09T16:48:39.961Z,40.81
2022-08-09T16:50:59.836Z,40.52
2022-08-09T16:53:36.209Z,39.94
2022-08-09T16:56:09.861Z,39.19
2022-08-09T16:58:39.613Z,38.77
2022-08-09T17:01:09.843Z,39.19
2022-08-09T17:03:37.439Z,39.47
2022-08-09T17:06:28.500Z,41.05
2022-08-09T17:09:01.816Z,40.31
2022-08-09T17:11:40.781Z,40.50
2022-08-09T17:14:25.771Z,40.12
2022-08-09T17:17:01.333Z,40.72
2022-08-09T17:19:47.384Z,41.29
2022-08-09T17:22:25.024Z,41.38
2022-08-09T17:25:09.777Z,42.32
2022-08-09T17:27:38.591Z,41.93
2022-08-09T17:30:07.165Z,42.08
2022-08-09T17:32:39.937Z,42.35
2022-08-09T17:35:13.155Z,42.85
2022-08-09T17:38:14.411Z,43.44
2022-08-09T17:40:33.402Z,43.69
2022-08-09T17:43:33.165Z,43.24
2022-08-09T17:46:02.968Z,43.33
2022-08-09T17:48:51.673Z,44.15
2022-08-09T17:51:20.188Z,45.86
2022-08-09T17:53:51.933Z,45.28
2022-08-09T17:56:35.168Z,45.61
2022-08-09T17:59:11.503Z,46.58
2022-08-09T18:02:03.380Z,45.60
2022-08-09T18:04:26.558Z,45.46
2022-08-09T18:06:54.909Z,45.83
2022-08-09T18:09:22.971Z,45.25
2022-08-09T18:12:14.913Z,45.45
2022-08-09T18:14:53.445Z,45.84
2022-08-09T18:17:27.239Z,47.29
2022-08-09T18:20:56.680Z,46.27
2022-08-09T18:22:56.636Z,46.19
2022-08-09T18:25:50.337Z,47.21
2022-08-09T18:28:21.479Z,47.52
2022-08-09T18:30:58.150Z,46.81
2022-08-09T18:33:25.286Z,47.31
2022-08-09T18:35:59.312Z,47.05
2022-08-09T18:38:27.409Z,48.16
2022-08-09T18:43:36.169Z,49.20
2022-08-09T18:46:46.028Z,50.01
2022-08-09T18:49:10.467Z,50.81
2022-08-09T18:51:38.649Z,50.40
2022-08-09T18:54:28.627Z,50.74
2022-08-09T18:57:05.199Z,50.47
2022-08-09T18:59:51.364Z,50.11
2022-08-09T19:02:32.620Z,50.40
2022-08-09T19:05:19.872Z,50.14
2022-08-09T19:08:03.625Z,50.27
2022-08-09T19:10:40.006Z,51.25
2022-08-09T19:13:18.597Z,52.28
2022-08-09T19:15:59.571Z,52.13
2022-08-09T19:18:43.711Z,51.87
2022-08-09T19:21:21.610Z,52.13
2022-08-09T19:24:33.357Z,51.68
2022-08-09T19:26:52.126Z,51.74
2022-08-09T19:29:20.878Z,51.66
2022-08-09T19:31:51.384Z,51.78
2022-08-09T19:34:22.819Z,53.25
2022-08-09T19:36:52.472Z,54.53
2022-08-09T19:39:42.812Z,53.89
2022-08-09T19:42:08.071Z,53.17
2022-08-09T19:44:38.151Z,52.84
2022-08-09T19:47:06.210Z,53.49
2022-08-09T19:50:09.610Z,54.25
2022-08-09T19:52:21.206Z,54.86
2022-08-09T19:54:48.835Z,56.86
2022-08-09T19:57:15.393Z,55.25
2022-08-09T19:59:59.951Z,54.36
2022-08-09T20:04:10.484Z,54.58
2022-08-09T20:05:16.909Z,54.51
2022-08-09T20:07:59.738Z,53.84
2022-08-09T20:10:34.341Z,53.67
2022-08-09T20:13:02.950Z,54.25
2022-08-09T20:16:35.865Z,54.77
2022-08-09T20:18:22.118Z,53.00
2022-08-09T20:20:51.095Z,52.76
2022-08-09T20:23:20.964Z,53.41
2022-08-09T20:25:52.711Z,52.77
2022-08-09T20:28:31.948Z,53.33
2022-08-09T20:31:04.823Z,53.03
2022-08-09T20:33:39.059Z,53.05
2022-08-09T20:36:09.303Z,53.87
2022-08-09T20:39:02.933Z,52.91
2022-08-09T20:41:31.990Z,52.31
2022-08-09T20:43:59.171Z,52.93
2022-08-09T20:46:33.515Z,52.90
2022-08-09T20:49:11.206Z,52.13
2022-08-09T20:51:41.610Z,51.67
2022-08-09T20:54:16.742Z,52.33
2022-08-09T20:56:49.832Z,52.31
2022-08-09T20:59:25.067Z,54.63
2022-08-09T21:02:09.947Z,55.09
2022-08-09T21:05:55.076Z,54.15
2022-08-09T21:07:30.096Z,54.89
2022-08-09T21:10:07.668Z,55.90
2022-08-09T21:12:37.618Z,58.27
2022-08-09T21:15:05.347Z,56.47
2022-08-09T21:18:23.418Z,56.52
2022-08-09T21:20:26.105Z,54.90
2022-08-09T21:22:54.415Z,55.40
2022-08-09T21:25:43.725Z,55.50
2022-08-09T21:28:12.005Z,100.00
2022-08-09T21:30:42.930Z,55.40
2022-08-09T21:33:09.839Z,56.15
2022-08-09T21:35:40.567Z,56.91
2022-08-09T21:38:09.886Z,55.95
2022-08-09T21:40:37.102Z,56.39
2022-08-09T21:43:06.033Z,57.32
2022-08-09T21:45:38.896Z,58.72
2022-08-09T21:48:07.303Z,57.41
2022-08-09T21:50:36.020Z,57.65
2022-08-09T21:53:19.974Z,56.54
2022-08-09T21:55:53.796Z,60.19
2022-08-09T21:58:20.325Z,57.65
2022-08-09T22:00:48.703Z,56.19
2022-08-09T22:03:25.245Z,56.14
2022-08-09T22:05:53.221Z,56.39
2022-08-09T22:08:24.558Z,56.39
2022-08-09T22:11:48.918Z,56.89
2022-08-09T22:13:43.242Z,57.13
2022-08-09T22:16:11.978Z,57.77
2022-08-09T22:18:52.826Z,57.59
2022-08-09T22:21:21.947Z,57.42
2022-08-09T22:23:58.881Z,57.84
2022-08-09T22:26:34.235Z,58.14
2022-08-09T22:29:06.905Z,58.21
2022-08-09T22:31:50.199Z,59.24
2022-08-09T22:34:25.875Z,59.40
2022-08-09T22:36:58.146Z,59.42
2022-08-09T22:39:57.048Z,59.80
2022-08-09T22:42:16.184Z,60.26
2022-08-09T22:44:49.803Z,59.85
2022-08-09T22:48:16.725Z,60.07
2022-08-09T22:50:22.669Z,60.35
2022-08-09T22:52:57.672Z,61.42
2022-08-09T22:55:25.762Z,67.54
2022-08-09T22:58:00.515Z,64.13
2022-08-09T23:00:29.404Z,62.42
2022-08-09T23:02:56.368Z,63.82
2022-08-09T23:05:22.980Z,61.70
2022-08-09T23:08:27.596Z,61.53
2022-08-09T23:10:56.483Z,60.52
2022-08-09T23:13:23.190Z,60.80
2022-08-09T23:16:03.122Z,60.52
2022-08-09T23:18:30.956Z,60.90
2022-08-09T23:20:57.550Z,62.99
2022-08-09T23:23:24.100Z,60.91
2022-08-09T23:25:50.692Z,60.62
2022-08-09T23:28:17.249Z,60.68
2022-08-09T23:30:51.799Z,62.48
2022-08-09T23:33:20.158Z,61.41
2022-08-09T23:36:07.049Z,61.80
2022-08-09T23:38:33.582Z,60.87
2022-08-09T23:41:01.574Z,61.43
2022-08-09T23:43:28.164Z,61.58
2022-08-09T23:45:54.742Z,61.96
2022-08-09T23:48:21.360Z,62.04
2022-08-09T23:50:47.973Z,62.30
2022-08-09T23:53:14.630Z,62.35
2022-08-09T23:55:49.459Z,62.56
2022-08-09T23:58:26.148Z,62.39
